Time;durP1;ratioP1;P1;durP2;ratioP2;P2;SDS_P1;SDS_P2;PMS_P1;PMS_P2;Temp;Humidity;BMP_temperature;BMP_pressure;BME280_temperature;BME280_humidity;BME280_pressure;Samples;Min_cycle;Max_cycle;Signal;HPM_P1;HPM_P2
2022/01/06 00:02:25;;;;;;;106.63;57.13;;;;;;;10.08;71.35;99860.97;4974977;28;20743;-80
2022/01/06 00:04:51;;;;;;;104.88;53.78;;;;;;;10.07;71.13;99857.53;4974716;28;20174;-81
2022/01/06 00:07:16;;;;;;;99.55;55.75;;;;;;;9.62;71.36;99766.06;4974847;28;20265;-79
2022/01/06 00:09:42;;;;;;;108.65;54.53;;;;;;;10.10;71.08;99855.22;4974496;28;20617;-81
2022/01/06 00:12:11;;;;;;;107.75;55.35;;;;;;;10.04;71.27;99854.72;4974386;28;20178;-81
2022/01/06 00:25:10;;;;;;;88.70;46.38;;;;;;;9.73;71.99;99843.69;4958848;28;20184;-82
2022/01/06 00:27:36;;;;;;;79.53;45.60;;;;;;;9.73;71.98;99848.81;4973200;28;20663;-83
2022/01/06 00:30:02;;;;;;;77.15;41.72;;;;;;;9.62;72.13;99836.81;4973271;28;20178;-82
2022/01/06 00:32:28;;;;;;;79.30;42.10;;;;;;;9.62;72.32;99841.91;4972294;28;20169;-80
2022/01/06 00:34:53;;;;;;;78.82;42.15;;;;;;;9.78;72.43;99869.63;4955543;28;20182;-82
2022/01/06 00:37:19;;;;;;;73.13;39.92;;;;;;;9.79;72.68;99866.31;4972508;28;20642;-81
2022/01/06 00:39:44;;;;;;;80.53;41.55;;;;;;;9.85;72.97;99875.38;4973249;28;20174;-80
2022/01/06 00:42:10;;;;;;;74.93;41.03;;;;;;;9.82;71.83;99864.91;4973129;28;20204;-81
2022/01/06 00:44:35;;;;;;;74.93;40.10;;;;;;;9.66;71.49;99846.53;4973146;28;20176;-81
2022/01/06 00:47:01;;;;;;;74.97;40.50;;;;;;;9.85;71.45;99887.28;4973431;28;20241;-80
2022/01/06 00:49:27;;;;;;;75.35;39.05;;;;;;;9.79;72.29;99881.69;4973037;28;20653;-81
2022/01/06 00:51:52;;;;;;;63.97;37.30;;;;;;;9.78;71.89;99885.91;4972993;28;20221;-81
2022/01/06 00:54:18;;;;;;;70.65;37.47;;;;;;;9.59;71.44;99867.25;4973213;28;20185;-81
2022/01/06 00:56:44;;;;;;;62.15;35.13;;;;;;;9.58;72.05;99878.25;4973107;28;20177;-80
2022/01/06 00:59:09;;;;;;;63.97;34.58;;;;;;;9.50;72.23;99862.25;4972969;28;20675;-80
2022/01/06 01:01:36;;;;;;;69.22;36.03;;;;;;;9.63;71.60;99893.22;4973230;28;20264;-81
2022/01/06 01:04:02;;;;;;;63.80;35.05;;;;;;;9.57;71.85;99891.81;4972580;28;20182;-81
2022/01/06 01:06:27;;;;;;;62.60;33.20;;;;;;;9.53;71.61;99898.31;4972774;28;20185;-81
2022/01/06 01:08:53;;;;;;;61.72;33.50;;;;;;;9.30;72.00;99862.28;4973086;28;20269;-81
2022/01/06 01:11:18;;;;;;;57.10;32.13;;;;;;;9.47;72.22;99893.63;4972653;28;20233;-80
2022/01/06 01:13:56;;;;;;;57.50;33.15;;;;;;;9.29;72.95;99861.41;4973769;28;20205;-81
2022/01/06 01:16:31;;;;;;;59.80;33.25;;;;;;;9.29;72.67;99850.28;4973350;28;20166;-79
2022/01/06 01:18:59;;;;;;;60.67;35.15;;;;;;;9.39;71.82;99878.41;4973220;28;20581;-81
2022/01/06 01:21:27;;;;;;;54.85;31.92;;;;;;;9.25;72.31;99859.34;4972721;28;20237;-80
2022/01/06 01:23:57;;;;;;;54.55;31.35;;;;;;;9.34;72.35;99872.00;4973495;28;20178;-80
2022/01/06 01:26:24;;;;;;;54.22;29.52;;;;;;;9.30;72.36;99868.28;4973076;28;20170;-81
2022/01/06 01:28:51;;;;;;;54.22;29.00;;;;;;;9.18;73.47;99847.72;4972943;28;20217;-81
2022/01/06 01:33:44;;;;;;;45.97;27.05;;;;;;;9.27;73.63;99862.03;4975290;28;20293;-83
2022/01/06 01:36:11;;;;;;;52.03;30.50;;;;;;;9.25;73.15;99861.91;4973915;28;20209;-81
2022/01/06 01:38:37;;;;;;;57.25;29.90;;;;;;;9.23;73.63;99861.78;4973096;28;20253;-81
2022/01/06 01:41:04;;;;;;;48.67;28.65;;;;;;;9.24;73.60;99860.13;4975088;28;20209;-82
2022/01/06 01:43:30;;;;;;;40.80;23.25;;;;;;;9.24;73.50;99867.78;4976881;28;20189;-81
2022/01/06 01:45:58;;;;;;;45.10;28.27;;;;;;;8.78;73.51;99787.28;4977042;28;20178;-81
2022/01/06 01:48:32;;;;;;;45.55;27.67;;;;;;;9.02;73.17;99832.78;4960152;28;20185;-81
2022/01/06 01:50:58;;;;;;;51.47;29.33;;;;;;;9.24;72.64;99860.13;4976792;28;20183;-83
2022/01/06 01:53:23;;;;;;;49.92;26.70;;;;;;;9.10;72.91;99837.66;4977145;28;20710;-80
2022/01/06 01:55:50;;;;;;;48.53;27.98;;;;;;;9.24;72.40;99866.13;4976757;28;20178;-81
2022/01/06 01:58:16;;;;;;;51.50;29.05;;;;;;;9.14;72.91;99861.00;4986116;28;20182;-82
2022/01/06 02:00:42;;;;;;;50.17;27.70;;;;;;;8.94;73.52;99826.16;4985723;28;20548;-81
2022/01/06 02:03:07;;;;;;;58.35;29.60;;;;;;;9.13;73.02;99859.25;4977627;28;20607;-80
2022/01/06 02:05:33;;;;;;;49.55;28.42;;;;;;;9.13;72.55;99866.91;4976205;28;20185;-79
2022/01/06 02:07:59;;;;;;;50.75;27.08;;;;;;;9.05;72.66;99856.81;4976280;28;20257;-81
2022/01/06 02:10:25;;;;;;;50.15;27.27;;;;;;;9.14;73.81;99878.91;4976270;28;20221;-80
2022/01/06 02:12:54;;;;;;;45.10;25.77;;;;;;;9.16;72.98;99882.50;4976414;28;20797;-80
2022/01/06 02:15:19;;;;;;;47.20;27.20;;;;;;;9.17;73.23;99880.84;4976294;28;20178;-81
2022/01/06 02:17:46;;;;;;;51.45;27.10;;;;;;;9.11;72.41;99880.31;4976285;28;20182;-81
2022/01/06 02:20:14;;;;;;;52.72;28.65;;;;;;;8.96;72.08;99855.25;4975972;28;20177;-81
2022/01/06 02:22:41;;;;;;;59.42;30.50;;;;;;;8.93;72.70;99856.66;4976018;28;20212;-81
2022/01/06 02:25:18;;;;;;;57.63;29.80;;;;;;;8.96;73.44;99870.59;4958899;28;20229;-81
2022/01/06 02:27:46;;;;;;;47.15;26.05;;;;;;;9.01;73.15;99882.09;4975681;28;20229;-80
2022/01/06 02:30:12;;;;;;;44.92;27.27;;;;;;;8.99;73.82;99888.72;4976290;28;20178;-81
2022/01/06 02:32:38;;;;;;;46.25;27.35;;;;;;;9.01;73.62;99888.88;4975521;28;20674;-80
2022/01/06 02:35:14;;;;;;;49.70;26.15;;;;;;;8.92;72.86;99871.09;4975580;28;20229;-82
2022/01/06 02:37:39;;;;;;;47.25;25.02;;;;;;;8.69;73.90;99838.50;4975371;28;20166;-80
2022/01/06 02:40:11;;;;;;;52.67;26.58;;;;;;;8.98;73.83;99888.63;4975389;28;20576;-81
2022/01/06 02:42:45;;;;;;;51.75;26.42;;;;;;;8.92;73.64;99886.44;4975176;28;20221;-81
2022/01/06 02:45:12;;;;;;;51.22;25.77;;;;;;;8.61;73.64;99830.97;4975581;28;20200;-80
2022/01/06 02:47:38;;;;;;;52.08;26.42;;;;;;;8.89;73.58;99893.84;4975456;28;20253;-81
2022/01/06 02:50:05;;;;;;;53.47;28.05;;;;;;;8.88;73.40;99906.47;4958674;28;20177;-79
2022/01/06 02:52:31;;;;;;;51.03;26.77;;;;;;;8.85;73.47;99908.75;4976034;28;20277;-79
2022/01/06 02:54:57;;;;;;;51.35;26.98;;;;;;;8.83;73.71;99912.84;4976313;28;20224;-80
2022/01/06 02:57:22;;;;;;;52.30;25.42;;;;;;;8.68;73.98;99889.44;4976530;28;20193;-80
2022/01/06 02:59:48;;;;;;;47.08;26.65;;;;;;;8.77;73.80;99914.09;4958942;28;20642;-80
2022/01/06 03:02:14;;;;;;;48.78;25.52;;;;;;;8.54;73.45;99876.41;4976272;28;20205;-80
2022/01/06 03:04:39;;;;;;;47.90;24.63;;;;;;;8.68;74.15;99889.44;4959667;28;20178;-80
2022/01/06 03:07:07;;;;;;;46.55;25.05;;;;;;;8.67;74.16;99900.44;4976241;28;20181;-80
2022/01/06 03:09:40;;;;;;;51.05;26.33;;;;;;;8.70;74.38;99910.91;4976107;28;20225;-81
2022/01/06 03:12:24;;;;;;;45.70;24.48;;;;;;;8.64;74.11;99885.75;4975764;28;20173;-80
2022/01/06 03:14:50;;;;;;;42.95;23.90;;;;;;;8.68;74.31;99886.88;4976432;28;20201;-81
2022/01/06 03:17:16;;;;;;;37.63;21.67;;;;;;;8.55;74.34;99852.63;4974641;28;20185;-81
2022/01/06 03:19:41;;;;;;;37.33;21.33;;;;;;;8.27;73.76;99811.06;4957702;28;20670;-80
2022/01/06 03:22:07;;;;;;;37.65;21.92;;;;;;;8.67;74.25;99891.09;4974339;28;20667;-81
2022/01/06 03:24:32;;;;;;;32.22;19.10;;;;;;;8.65;74.53;99889.19;4974072;28;20721;-80
2022/01/06 03:26:58;;;;;;;35.45;18.95;;;;;;;8.56;74.66;99874.84;4974203;28;20174;-79
2022/01/06 03:29:23;;;;;;;35.13;20.73;;;;;;;8.46;74.16;99869.72;4974492;28;20729;-80
2022/01/06 03:31:49;;;;;;;34.10;21.00;;;;;;;8.59;74.09;99906.53;4974120;28;20642;-81
2022/01/06 03:34:14;;;;;;;39.67;22.25;;;;;;;8.56;74.62;99905.50;4974473;28;20202;-80
2022/01/06 03:36:40;;;;;;;37.60;20.67;;;;;;;8.47;74.62;99904.72;4981818;28;20185;-80
2022/01/06 03:39:06;;;;;;;35.78;20.73;;;;;;;8.35;74.41;99888.31;4985597;28;20248;-81
2022/01/06 03:41:32;;;;;;;37.80;21.05;;;;;;;8.33;74.78;99888.16;4982644;28;20666;-79
2022/01/06 03:43:58;;;;;;;34.53;20.05;;;;;;;8.47;74.42;99916.56;4984474;28;20178;-80
2022/01/06 03:46:23;;;;;;;40.17;21.98;;;;;;;8.44;74.91;99916.28;4984241;28;20194;-80
2022/01/06 03:48:49;;;;;;;37.90;20.77;;;;;;;8.45;75.02;99906.22;4983895;28;20597;-81
2022/01/06 03:51:14;;;;;;;31.70;19.92;;;;;;;8.47;75.56;99902.16;4987162;28;20181;-80
2022/01/06 03:53:40;;;;;;;30.75;18.33;;;;;;;8.46;74.95;99909.69;4987147;28;20166;-79
2022/01/06 03:56:05;;;;;;;33.90;18.77;;;;;;;8.46;75.16;99902.03;4984693;28;20186;-81
2022/01/06 03:58:31;;;;;;;42.97;19.25;;;;;;;8.47;75.25;99906.34;4984173;28;20267;-78
2022/01/06 04:00:56;;;;;;;34.50;19.55;;;;;;;8.40;75.41;99902.38;4984464;28;20229;-81
2022/01/06 04:03:22;;;;;;;33.83;19.30;;;;;;;8.39;75.09;99899.72;4984624;28;20265;-80
2022/01/06 04:05:47;;;;;;;32.15;19.60;;;;;;;8.37;75.00;99906.28;4977018;28;20704;-81
2022/01/06 04:08:13;;;;;;;34.72;19.77;;;;;;;8.15;74.95;99881.44;4975140;28;20178;-81
2022/01/06 04:10:39;;;;;;;34.42;20.38;;;;;;;8.30;74.68;99904.88;4974104;28;20297;-81
2022/01/06 04:13:04;;;;;;;37.60;20.73;;;;;;;8.28;75.75;99916.59;4974568;28;20203;-81
2022/01/06 04:15:30;;;;;;;38.60;20.73;;;;;;;8.28;76.24;99929.34;4975074;28;20283;-80
2022/01/06 04:17:55;;;;;;;36.55;21.58;;;;;;;8.17;76.42;99919.88;4975072;28;20177;-81
2022/01/06 04:20:21;;;;;;;34.22;20.05;;;;;;;8.20;75.83;99933.78;4978882;28;20182;-80
2022/01/06 04:22:46;;;;;;;44.63;24.10;;;;;;;8.18;76.61;99932.75;4982604;28;20197;-79
2022/01/06 04:25:12;;;;;;;34.38;20.63;;;;;;;7.92;75.96;99897.28;4980411;28;20260;-82
2022/01/06 04:27:38;;;;;;;41.92;22.10;;;;;;;7.61;76.14;99855.41;4980404;28;20197;-80
2022/01/06 04:30:07;;;;;;;40.80;22.42;;;;;;;8.17;76.51;99965.81;4979591;28;20206;-80
2022/01/06 04:32:33;;;;;;;41.42;22.98;;;;;;;8.08;76.01;99954.00;4999765;28;20201;-81
2022/01/06 04:34:59;;;;;;;42.33;23.60;;;;;;;8.16;75.71;99958.88;5002331;28;20192;-80
2022/01/06 04:37:26;;;;;;;42.28;23.40;;;;;;;7.89;75.79;99935.28;4998997;28;20177;-80
2022/01/06 04:39:51;;;;;;;41.53;23.75;;;;;;;8.07;76.20;99957.31;5000248;28;20184;-81
2022/01/06 04:42:17;;;;;;;36.33;22.00;;;;;;;8.08;76.09;99971.88;5002509;28;20212;-80
2022/01/06 04:44:42;;;;;;;39.25;23.23;;;;;;;8.01;76.41;99959.31;5000971;28;20173;-80
2022/01/06 04:47:08;;;;;;;48.13;24.40;;;;;;;8.04;76.49;99969.81;4995736;28;20731;-80
2022/01/06 04:49:33;;;;;;;41.90;23.15;;;;;;;8.09;75.88;99977.84;4992663;28;20177;-80
2022/01/06 04:51:59;;;;;;;44.00;22.80;;;;;;;8.03;75.89;99962.88;4992920;28;20169;-79
2022/01/06 04:54:24;;;;;;;42.00;24.15;;;;;;;8.12;75.86;99983.22;4992491;28;20178;-80
2022/01/06 04:56:50;;;;;;;45.47;24.05;;;;;;;8.00;75.69;99975.38;4992018;28;20173;-79
2022/01/06 04:59:16;;;;;;;45.10;24.70;;;;;;;8.07;75.80;99989.59;4994019;28;20173;-80
2022/01/06 05:01:41;;;;;;;44.95;24.55;;;;;;;8.04;75.86;99997.88;4992118;28;20193;-78
2022/01/06 05:04:06;;;;;;;41.78;24.02;;;;;;;8.01;75.69;99995.03;4991994;28;20188;-80
2022/01/06 05:06:32;;;;;;;41.30;23.63;;;;;;;7.96;76.20;99997.94;4974723;28;20181;-79
2022/01/06 05:08:58;;;;;;;47.67;23.70;;;;;;;7.94;76.65;99996.88;4991880;28;20653;-79
2022/01/06 05:11:23;;;;;;;41.47;23.13;;;;;;;7.90;75.80;99985.50;4992687;28;20304;-79
2022/01/06 05:13:49;;;;;;;38.50;23.13;;;;;;;7.89;76.39;99985.38;4993265;28;20177;-81
2022/01/06 05:16:15;;;;;;;47.67;21.23;;;;;;;7.96;75.93;99995.38;4996535;28;20617;-79
2022/01/06 05:18:40;;;;;;;40.42;20.92;;;;;;;7.90;75.51;99984.63;4996861;28;20173;-79
2022/01/06 05:21:07;;;;;;;43.25;22.55;;;;;;;7.97;75.77;99989.50;4996572;28;20444;-77
2022/01/06 05:23:33;;;;;;;49.33;22.08;;;;;;;7.94;75.48;99987.56;4997540;28;20256;-78
2022/01/06 05:25:59;;;;;;;42.38;21.90;;;;;;;8.04;75.31;99995.31;4998276;28;20203;-80
2022/01/06 05:28:25;;;;;;;43.45;22.13;;;;;;;7.99;75.13;99995.66;4998065;28;20177;-79
2022/01/06 05:30:50;;;;;;;40.80;22.17;;;;;;;7.85;75.94;99984.22;4997403;28;20550;-77
2022/01/06 05:33:16;;;;;;;44.80;23.83;;;;;;;7.94;76.13;100007.09;4996589;28;20212;-78
2022/01/06 05:35:41;;;;;;;40.35;22.60;;;;;;;7.95;75.78;100009.78;4996537;28;20173;-78
2022/01/06 05:38:07;;;;;;;44.35;24.85;;;;;;;7.91;76.01;100011.91;4996798;28;20173;-76
2022/01/06 05:40:33;;;;;;;43.95;24.05;;;;;;;7.95;76.13;100007.25;4998539;28;20228;-80
2022/01/06 05:42:59;;;;;;;44.75;23.67;;;;;;;7.94;75.86;100020.72;4996829;28;20715;-80
2022/01/06 05:45:25;;;;;;;41.55;24.08;;;;;;;7.77;75.75;99991.16;4997498;28;20257;-79
2022/01/06 05:47:51;;;;;;;54.28;30.27;;;;;;;7.92;75.84;100006.06;4995019;28;20193;-77
2022/01/06 05:50:16;;;;;;;54.55;28.10;;;;;;;7.94;75.76;100015.63;4995689;28;20568;-78
2022/01/06 05:52:43;;;;;;;47.78;25.45;;;;;;;7.93;75.55;100015.50;4995603;28;20269;-76
2022/01/06 05:55:08;;;;;;;45.83;26.55;;;;;;;7.58;75.88;99959.66;4994529;28;20248;-77
2022/01/06 05:57:34;;;;;;;50.03;27.27;;;;;;;7.74;76.08;99984.88;4995303;28;20264;-78
2022/01/06 05:59:59;;;;;;;46.50;27.73;;;;;;;7.77;75.93;100005.56;4995323;28;20185;-78
2022/01/06 06:02:25;;;;;;;58.78;29.92;;;;;;;7.82;76.71;100019.66;4995399;28;20556;-77
2022/01/06 06:04:52;;;;;;;56.38;29.88;;;;;;;7.72;76.58;100009.34;4995676;28;20169;-78
2022/01/06 06:07:19;;;;;;;67.43;31.45;;;;;;;7.73;76.80;100006.06;4978022;28;20267;-77
2022/01/06 06:09:45;;;;;;;61.50;32.38;;;;;;;7.79;76.78;100037.22;4977799;28;20217;-79
2022/01/06 06:12:11;;;;;;;106.07;44.75;;;;;;;7.80;77.19;100032.25;4994956;28;20180;-76
2022/01/06 06:14:36;;;;;;;84.70;41.85;;;;;;;7.75;77.48;100012.16;4995018;28;20265;-77
2022/01/06 06:17:02;;;;;;;79.60;39.55;;;;;;;7.78;76.93;100020.09;4994748;28;20212;-77
2022/01/06 06:19:27;;;;;;;74.82;38.42;;;;;;;7.84;76.96;100049.63;4994964;28;20240;-77
2022/01/06 06:21:53;;;;;;;82.80;38.85;;;;;;;7.78;76.77;100032.84;4994700;28;20748;-77
2022/01/06 06:24:20;;;;;;;76.93;38.28;;;;;;;7.91;76.38;100047.63;4994996;28;20174;-79
2022/01/06 06:26:45;;;;;;;77.63;37.20;;;;;;;7.83;76.84;100039.28;4994077;28;20248;-77
2022/01/06 06:29:11;;;;;;;73.22;37.08;;;;;;;7.91;76.49;100057.81;4995528;28;20656;-79
2022/01/06 06:31:36;;;;;;;86.93;39.70;;;;;;;7.89;76.77;100055.16;4995883;28;20177;-77
2022/01/06 06:34:02;;;;;;;76.70;37.30;;;;;;;7.94;77.48;100048.78;4995729;28;20184;-78
2022/01/06 06:36:27;;;;;;;85.45;40.28;;;;;;;7.90;76.45;100030.53;4995383;28;20182;-78
2022/01/06 06:38:53;;;;;;;72.32;39.08;;;;;;;8.04;76.73;100054.00;4994648;28;20562;-78
2022/01/06 06:41:19;;;;;;;70.10;36.33;;;;;;;8.13;77.02;100046.28;4994136;28;20659;-77
2022/01/06 06:43:44;;;;;;;74.63;37.28;;;;;;;8.23;75.63;100050.56;4994055;28;20656;-83
2022/01/06 06:46:09;;;;;;;73.03;37.00;;;;;;;7.82;75.44;99984.84;4977621;28;20192;-81
2022/01/06 06:48:35;;;;;;;75.28;35.78;;;;;;;8.33;75.40;100053.19;4994376;28;20182;-80
2022/01/06 06:51:02;;;;;;;77.95;37.03;;;;;;;8.46;75.17;100081.63;4994226;28;20185;-81
2022/01/06 06:53:28;;;;;;;74.68;34.60;;;;;;;8.47;74.55;100064.63;4978899;28;20197;-78
2022/01/06 06:55:54;;;;;;;80.43;39.67;;;;;;;8.55;73.96;100069.69;4977764;28;20276;-80
2022/01/06 06:58:19;;;;;;;122.63;59.33;;;;;;;8.36;73.54;100012.59;4994117;28;20260;-81
2022/01/06 07:00:45;;;;;;;66.13;36.67;;;;;;;8.65;73.43;100035.63;4994297;28;20177;-81
2022/01/06 07:03:10;;;;;;;50.30;29.50;;;;;;;8.81;73.51;100036.97;4994142;28;20207;-80
2022/01/06 07:05:36;;;;;;;55.88;29.02;;;;;;;9.13;72.77;100057.69;4977664;28;20240;-81
2022/01/06 07:08:02;;;;;;;57.20;30.30;;;;;;;9.36;73.07;100062.22;4994832;28;20252;-81
2022/01/06 07:10:28;;;;;;;53.90;30.63;;;;;;;9.59;71.56;100071.84;4994236;28;20727;-80
2022/01/06 07:12:53;;;;;;;51.75;29.15;;;;;;;9.57;70.89;100047.81;4994634;28;20505;-81
2022/01/06 07:15:19;;;;;;;47.13;28.00;;;;;;;9.81;69.99;100069.44;4993880;28;20264;-79
2022/01/06 07:17:45;;;;;;;52.10;28.23;;;;;;;9.83;69.50;100043.22;4994406;28;20177;-80
2022/01/06 07:20:11;;;;;;;70.50;30.08;;;;;;;10.08;68.63;100079.44;4993783;28;20236;-81
2022/01/06 07:22:37;;;;;;;62.78;31.63;;;;;;;10.32;68.36;100100.22;4976607;28;20209;-81
2022/01/06 07:25:04;;;;;;;64.93;32.22;;;;;;;10.45;67.98;100100.44;4993758;28;20184;-81
2022/01/06 07:27:29;;;;;;;55.58;30.38;;;;;;;10.56;68.03;100085.94;4993926;28;20181;-81
2022/01/06 07:29:55;;;;;;;68.95;36.67;;;;;;;10.75;67.46;100086.69;4993766;28;20177;-81
2022/01/06 07:32:21;;;;;;;54.25;31.75;;;;;;;10.92;67.26;100102.50;4994122;28;20189;-81
2022/01/06 07:34:47;;;;;;;60.55;32.50;;;;;;;11.09;66.78;100089.38;4994583;28;20760;-81
2022/01/06 07:37:12;;;;;;;77.47;37.50;;;;;;;11.28;66.47;100081.47;5001430;28;20233;-81
2022/01/06 07:39:38;;;;;;;60.55;32.38;;;;;;;11.22;65.35;100051.13;5008441;28;20177;-82
2022/01/06 07:42:05;;;;;;;65.05;32.33;;;;;;;11.56;64.90;100070.03;5010877;28;20209;-81
2022/01/06 07:44:30;;;;;;;55.30;30.80;;;;;;;11.69;64.32;100051.31;5014302;28;20184;-81
2022/01/06 07:46:56;;;;;;;70.60;30.60;;;;;;;11.87;63.76;100066.34;5011855;28;20181;-81
2022/01/06 07:49:21;;;;;;;66.68;31.02;;;;;;;11.96;62.75;100075.69;5017506;28;20169;-80
2022/01/06 07:51:47;;;;;;;59.20;30.73;;;;;;;12.24;62.91;100077.72;4993983;28;20200;-81
2022/01/06 07:54:12;;;;;;;76.78;34.85;;;;;;;12.34;62.07;100087.03;5017250;28;20192;-79
2022/01/06 07:56:38;;;;;;;62.53;31.63;;;;;;;12.37;62.14;100059.91;5013654;28;20180;-81
2022/01/06 07:59:03;;;;;;;65.38;31.83;;;;;;;12.60;61.90;100086.38;5013604;28;20165;-81
2022/01/06 08:01:29;;;;;;;54.67;30.30;;;;;;;12.75;61.63;100087.50;5017536;28;20212;-79
2022/01/06 08:03:54;;;;;;;54.40;29.63;;;;;;;12.92;61.18;100093.88;5017995;28;20189;-80
2022/01/06 08:06:20;;;;;;;53.22;30.08;;;;;;;13.10;60.85;100099.44;5018812;28;20165;-79
2022/01/06 08:08:46;;;;;;;49.97;27.77;;;;;;;13.27;59.85;100105.81;5017472;28;20173;-81
2022/01/06 08:11:13;;;;;;;50.90;26.95;;;;;;;13.41;59.77;100097.41;5018591;28;20244;-79
2022/01/06 08:13:39;;;;;;;48.90;28.95;;;;;;;13.62;59.48;100110.91;5019083;28;20188;-79
2022/01/06 08:16:05;;;;;;;48.58;29.88;;;;;;;13.74;58.48;100100.56;5018899;28;20173;-79
2022/01/06 08:18:30;;;;;;;58.97;31.13;;;;;;;13.96;58.75;100110.66;5018435;28;20193;-79
2022/01/06 08:20:56;;;;;;;41.92;24.33;;;;;;;14.11;56.92;100124.56;5018886;28;20173;-79
2022/01/06 08:23:22;;;;;;;35.33;17.75;;;;;;;14.21;56.87;100110.63;5016112;28;20221;-80
2022/01/06 08:25:47;;;;;;;35.50;17.77;;;;;;;14.19;55.92;100087.34;5001126;28;20196;-81
2022/01/06 08:28:13;;;;;;;36.03;17.60;;;;;;;14.37;55.48;100113.44;5017501;28;20173;-81
2022/01/06 08:30:38;;;;;;;36.35;18.15;;;;;;;14.51;55.64;100115.28;5016893;28;20177;-81
2022/01/06 08:33:04;;;;;;;34.75;18.48;;;;;;;14.72;55.58;100099.44;5015183;28;20224;-82
2022/01/06 08:35:30;;;;;;;40.70;19.48;;;;;;;14.91;55.02;100083.47;5015440;28;20201;-81
2022/01/06 08:37:56;;;;;;;44.03;21.85;;;;;;;15.06;54.42;100081.88;5017640;28;20168;-80
2022/01/06 08:40:21;;;;;;;33.88;20.80;;;;;;;15.44;54.44;100109.19;5013334;28;20176;-80
2022/01/06 08:42:48;;;;;;;49.40;22.65;;;;;;;15.69;53.47;100114.22;5009324;28;20212;-82
2022/01/06 08:45:14;;;;;;;39.88;19.70;;;;;;;15.92;52.63;100106.22;5013529;28;20644;-81
2022/01/06 08:47:40;;;;;;;34.95;16.92;;;;;;;15.98;52.07;100069.53;5013024;28;20177;-82
2022/01/06 08:50:06;;;;;;;33.35;16.55;;;;;;;16.31;50.84;100095.56;5007505;28;20173;-81
2022/01/06 08:52:34;;;;;;;27.77;15.85;;;;;;;16.46;51.01;100091.28;5005619;28;20184;-82
2022/01/06 08:55:01;;;;;;;30.10;18.98;;;;;;;16.65;49.81;100090.66;5004418;28;20675;-82
2022/01/06 08:57:27;;;;;;;40.95;19.02;;;;;;;16.83;50.09;100089.16;4992547;28;20205;-81
2022/01/06 08:59:53;;;;;;;30.40;18.38;;;;;;;16.53;50.07;99991.69;5007123;28;20181;-83
2022/01/06 09:02:18;;;;;;;42.38;16.58;;;;;;;17.26;48.76;100091.56;5001470;28;21121;-82
2022/01/06 09:04:44;;;;;;;26.65;14.48;;;;;;;17.39;48.41;100058.56;5006813;28;20184;-82
2022/01/06 09:07:09;;;;;;;31.73;15.02;;;;;;;17.75;47.47;100078.63;5005496;28;20676;-80
2022/01/06 09:09:37;;;;;;;18.55;11.23;;;;;;;17.94;47.21;100075.38;5005505;28;20226;-81
2022/01/06 09:12:05;;;;;;;24.23;13.52;;;;;;;18.03;47.27;100045.53;5008148;28;20235;-81
2022/01/06 09:14:30;;;;;;;30.00;14.02;;;;;;;18.43;46.23;100061.41;5009993;28;20177;-81
2022/01/06 09:16:56;;;;;;;28.70;16.08;;;;;;;18.73;46.40;100066.38;4996591;28;20180;-82
2022/01/06 09:19:21;;;;;;;30.63;14.68;;;;;;;18.86;45.90;100050.56;4996231;28;20177;-82
2022/01/06 09:21:47;;;;;;;27.10;14.32;;;;;;;19.14;44.54;100058.84;5012688;28;20205;-81
2022/01/06 09:24:12;;;;;;;24.67;11.60;;;;;;;19.28;42.86;100035.19;5015333;28;20169;-82
2022/01/06 09:26:38;;;;;;;18.75;8.60;;;;;;;19.31;42.47;100035.34;5014481;28;20177;-81
2022/01/06 09:29:05;;;;;;;22.52;6.47;;;;;;;19.36;41.75;100034.75;5014659;28;20189;-82
2022/01/06 09:31:33;;;;;;;9.68;5.70;;;;;;;19.06;41.92;99986.59;5013869;28;20184;-81
2022/01/06 09:33:59;;;;;;;5.90;4.45;;;;;;;19.22;41.65;100014.13;5008004;28;20192;-82
2022/01/06 09:36:27;;;;;;;9.70;5.05;;;;;;;18.87;42.46;99971.88;4972974;28;20173;-83
2022/01/06 09:38:57;;;;;;;9.40;4.93;;;;;;;19.27;42.72;100029.13;5009385;28;20173;-81
2022/01/06 09:41:23;;;;;;;10.23;5.07;;;;;;;19.34;42.20;100031.16;5011565;28;20228;-82
2022/01/06 09:43:51;;;;;;;12.32;5.80;;;;;;;19.47;42.38;100037.84;5012104;28;20208;-82
2022/01/06 09:46:17;;;;;;;9.07;5.43;;;;;;;19.35;42.35;99994.00;4997745;28;20205;-82
2022/01/06 09:48:42;;;;;;;10.45;5.47;;;;;;;19.73;42.38;100035.53;5015127;28;20201;-81
2022/01/06 09:51:09;;;;;;;13.68;6.30;;;;;;;19.87;42.15;100043.94;5016558;28;20281;-81
2022/01/06 09:53:35;;;;;;;9.75;5.68;;;;;;;19.93;41.99;100029.50;5015139;28;20220;-81
2022/01/06 09:56:00;;;;;;;11.70;6.32;;;;;;;20.22;41.60;100035.06;5015076;28;20174;-81
2022/01/06 09:58:28;;;;;;;8.65;5.93;;;;;;;20.30;41.69;100018.94;5014792;28;20170;-81
2022/01/06 10:00:56;;;;;;;7.97;5.60;;;;;;;20.50;41.90;100024.97;5013404;28;20281;-81
2022/01/06 10:03:39;;;;;;;7.95;5.22;;;;;;;20.71;41.52;100019.75;5017330;28;20201;-81
2022/01/06 10:06:16;;;;;;;10.82;4.68;;;;;;;20.94;40.41;100005.06;5017873;28;20164;-83
2022/01/06 10:08:43;;;;;;;8.60;5.35;;;;;;;21.01;40.27;100028.72;5018583;28;20173;-81
2022/01/06 10:11:14;;;;;;;6.57;4.93;;;;;;;21.03;40.71;100019.25;5017207;28;20224;-81
2022/01/06 10:13:42;;;;;;;9.30;4.63;;;;;;;21.28;40.74;100026.28;5013453;28;20181;-81
2022/01/06 10:16:13;;;;;;;8.45;4.63;;;;;;;21.29;40.13;99984.66;5013184;28;20201;-82
2022/01/06 10:18:39;;;;;;;7.45;5.10;;;;;;;21.56;40.46;100012.63;4994319;28;20181;-82
2022/01/06 10:21:13;;;;;;;9.60;6.32;;;;;;;21.53;39.49;99971.69;4998025;28;20179;-82
2022/01/06 10:23:38;;;;;;;13.93;7.50;;;;;;;21.72;39.52;100025.34;5018446;28;20252;-83
2022/01/06 10:26:14;;;;;;;12.13;6.53;;;;;;;21.62;39.45;100024.16;5017768;28;20177;-83
2022/01/06 10:28:39;;;;;;;16.42;8.55;;;;;;;21.14;40.14;99966.72;5017882;28;20192;-84
2022/01/06 10:31:07;;;;;;;12.02;7.00;;;;;;;21.40;40.83;100009.44;5012218;28;20169;-82
2022/01/06 10:33:41;;;;;;;10.98;6.15;;;;;;;21.42;40.50;100017.31;4996169;28;20195;-82
2022/01/06 10:36:08;;;;;;;14.70;6.03;;;;;;;21.49;40.63;100023.63;5012203;28;20248;-81
2022/01/06 10:38:34;;;;;;;12.15;5.72;;;;;;;21.67;40.10;100030.38;5014004;28;20177;-81
2022/01/06 10:41:16;;;;;;;8.55;5.50;;;;;;;21.73;40.21;100034.06;5011879;28;20184;-81
2022/01/06 10:43:47;;;;;;;8.63;5.53;;;;;;;21.80;39.91;100017.78;5013434;28;20201;-81
2022/01/06 10:46:13;;;;;;;7.18;5.18;;;;;;;21.51;39.88;99957.69;5012893;28;20180;-81
2022/01/06 10:48:44;;;;;;;9.10;6.85;;;;;;;21.82;39.37;100026.56;5015693;28;20269;-81
2022/01/06 10:51:09;;;;;;;13.20;6.63;;;;;;;21.66;39.53;100028.63;4993755;28;20177;-82
2022/01/06 10:53:47;;;;;;;11.85;7.43;;;;;;;21.68;39.67;100040.00;4998514;28;20672;-82
2022/01/06 10:56:18;;;;;;;14.55;7.85;;;;;;;21.60;39.99;100030.13;5009524;28;20189;-82
2022/01/06 10:58:45;;;;;;;13.90;7.53;;;;;;;21.71;40.08;100041.81;5007112;28;20225;-82
2022/01/06 11:01:16;;;;;;;9.35;6.43;;;;;;;21.69;39.92;100035.69;5009093;28;20632;-82
2022/01/06 11:03:41;;;;;;;9.18;6.05;;;;;;;21.71;40.29;100047.03;5011261;28;20256;-82
2022/01/06 11:06:07;;;;;;;7.93;5.75;;;;;;;21.78;40.00;100046.44;5012840;28;20189;-80
2022/01/06 11:08:40;;;;;;;12.20;6.20;;;;;;;21.35;40.11;99966.69;5015987;28;20212;-81
2022/01/06 11:13:41;;;;;;;7.88;5.10;;;;;;;21.29;39.60;99950.78;5018765;28;20190;-81
2022/01/06 11:16:08;;;;;;;10.55;5.43;;;;;;;21.89;38.95;100039.88;5018544;28;20177;-81
2022/01/06 11:18:38;;;;;;;9.15;5.75;;;;;;;21.94;38.98;100057.41;5018679;28;20232;-82
2022/01/06 11:21:10;;;;;;;12.38;5.45;;;;;;;22.00;38.66;100042.00;5017981;28;20165;-81
2022/01/06 11:23:36;;;;;;;11.27;6.60;;;;;;;21.86;38.50;100011.06;5018436;28;20216;-82
2022/01/06 11:26:06;;;;;;;16.95;8.15;;;;;;;22.02;38.49;100037.69;5019804;28;20174;-79
2022/01/06 11:28:32;;;;;;;17.40;8.13;;;;;;;21.90;38.17;100010.38;5019295;28;20169;-81
2022/01/06 11:31:14;;;;;;;13.40;7.45;;;;;;;21.75;37.59;99970.72;5002884;28;20177;-81
2022/01/06 11:33:41;;;;;;;17.08;9.13;;;;;;;22.10;37.43;100026.69;5019417;28;20219;-81